sensor_id;sensor_type;location;lat;lon;timestamp;P1;durP1;ratioP1;P2;durP2;ratioP2
64678;SDS011;51094;53.864;27.676;2024-03-08T00:00:11;2.50;;;2.40;;
64678;SDS011;51094;53.864;27.676;2024-03-08T00:02:43;2.40;;;2.40;;
64678;SDS011;51094;53.864;27.676;2024-03-08T00:05:12;2.72;;;2.63;;
64678;SDS011;51094;53.864;27.676;2024-03-08T00:07:40;2.40;;;2.40;;
64678;SDS011;51094;53.864;27.676;2024-03-08T00:10:09;2.80;;;2.72;;
64678;SDS011;51094;53.864;27.676;2024-03-08T00:12:39;2.90;;;2.80;;
64678;SDS011;51094;53.864;27.676;2024-03-08T00:15:13;2.75;;;2.65;;
64678;SDS011;51094;53.864;27.676;2024-03-08T00:17:43;2.65;;;2.55;;
64678;SDS011;51094;53.864;27.676;2024-03-08T00:20:11;2.40;;;2.40;;
64678;SDS011;51094;53.864;27.676;2024-03-08T00:22:40;2.13;;;2.13;;
64678;SDS011;51094;53.864;27.676;2024-03-08T00:25:10;2.42;;;2.42;;
64678;SDS011;51094;53.864;27.676;2024-03-08T00:27:38;2.25;;;2.25;;
64678;SDS011;51094;53.864;27.676;2024-03-08T00:30:06;2.40;;;2.30;;
64678;SDS011;51094;53.864;27.676;2024-03-08T00:32:36;1.88;;;1.88;;
64678;SDS011;51094;53.864;27.676;2024-03-08T00:35:04;2.30;;;2.30;;
64678;SDS011;51094;53.864;27.676;2024-03-08T00:37:34;1.92;;;1.92;;
64678;SDS011;51094;53.864;27.676;2024-03-08T00:40:02;1.85;;;1.85;;
64678;SDS011;51094;53.864;27.676;2024-03-08T00:42:29;1.98;;;1.98;;
64678;SDS011;51094;53.864;27.676;2024-03-08T00:44:56;1.90;;;1.90;;
64678;SDS011;51094;53.864;27.676;2024-03-08T00:47:27;2.13;;;2.13;;
64678;SDS011;51094;53.864;27.676;2024-03-08T00:49:54;2.25;;;2.25;;
64678;SDS011;51094;53.864;27.676;2024-03-08T00:52:23;2.00;;;2.00;;
64678;SDS011;51094;53.864;27.676;2024-03-08T00:54:50;2.10;;;2.10;;
64678;SDS011;51094;53.864;27.676;2024-03-08T00:57:17;1.90;;;1.90;;
64678;SDS011;51094;53.864;27.676;2024-03-08T00:59:45;1.88;;;1.88;;
64678;SDS011;51094;53.864;27.676;2024-03-08T01:02:13;2.22;;;2.22;;
64678;SDS011;51094;53.864;27.676;2024-03-08T01:04:41;2.08;;;2.08;;
64678;SDS011;51094;53.864;27.676;2024-03-08T01:07:08;2.00;;;2.00;;
64678;SDS011;51094;53.864;27.676;2024-03-08T01:09:34;2.38;;;2.38;;
64678;SDS011;51094;53.864;27.676;2024-03-08T01:12:02;2.00;;;2.00;;
64678;SDS011;51094;53.864;27.676;2024-03-08T01:14:30;1.98;;;1.98;;
64678;SDS011;51094;53.864;27.676;2024-03-08T01:16:57;2.15;;;2.15;;
64678;SDS011;51094;53.864;27.676;2024-03-08T01:19:25;2.22;;;2.17;;
64678;SDS011;51094;53.864;27.676;2024-03-08T01:21:52;2.08;;;2.08;;
64678;SDS011;51094;53.864;27.676;2024-03-08T01:24:22;2.00;;;2.00;;
64678;SDS011;51094;53.864;27.676;2024-03-08T01:26:49;2.03;;;2.03;;
64678;SDS011;51094;53.864;27.676;2024-03-08T01:29:17;2.08;;;2.08;;
64678;SDS011;51094;53.864;27.676;2024-03-08T01:31:44;2.22;;;2.22;;
64678;SDS011;51094;53.864;27.676;2024-03-08T01:34:11;2.20;;;2.20;;
64678;SDS011;51094;53.864;27.676;2024-03-08T01:36:38;1.80;;;1.80;;
64678;SDS011;51094;53.864;27.676;2024-03-08T01:39:05;1.95;;;1.95;;
64678;SDS011;51094;53.864;27.676;2024-03-08T01:41:35;2.20;;;2.20;;
64678;SDS011;51094;53.864;27.676;2024-03-08T01:44:03;2.28;;;2.20;;
64678;SDS011;51094;53.864;27.676;2024-03-08T01:46:30;2.00;;;2.00;;
64678;SDS011;51094;53.864;27.676;2024-03-08T01:48:58;2.20;;;2.20;;
64678;SDS011;51094;53.864;27.676;2024-03-08T01:51:28;2.00;;;2.00;;
64678;SDS011;51094;53.864;27.676;2024-03-08T01:53:56;1.70;;;1.70;;
64678;SDS011;51094;53.864;27.676;2024-03-08T01:56:27;2.03;;;2.03;;
64678;SDS011;51094;53.864;27.676;2024-03-08T01:58:55;2.10;;;2.10;;
64678;SDS011;51094;53.864;27.676;2024-03-08T02:01:22;1.90;;;1.90;;
64678;SDS011;51094;53.864;27.676;2024-03-08T02:03:49;2.00;;;2.00;;
64678;SDS011;51094;53.864;27.676;2024-03-08T02:06:19;1.83;;;1.83;;
64678;SDS011;51094;53.864;27.676;2024-03-08T02:08:47;1.85;;;1.85;;
64678;SDS011;51094;53.864;27.676;2024-03-08T02:11:14;1.60;;;1.60;;
64678;SDS011;51094;53.864;27.676;2024-03-08T02:13:42;1.63;;;1.63;;
64678;SDS011;51094;53.864;27.676;2024-03-08T02:16:10;1.70;;;1.70;;
64678;SDS011;51094;53.864;27.676;2024-03-08T02:18:37;1.67;;;1.67;;
64678;SDS011;51094;53.864;27.676;2024-03-08T02:21:06;1.60;;;1.60;;
64678;SDS011;51094;53.864;27.676;2024-03-08T02:23:35;1.80;;;1.80;;
64678;SDS011;51094;53.864;27.676;2024-03-08T02:26:04;1.70;;;1.70;;
64678;SDS011;51094;53.864;27.676;2024-03-08T02:28:32;1.85;;;1.85;;
64678;SDS011;51094;53.864;27.676;2024-03-08T02:30:59;1.60;;;1.60;;
64678;SDS011;51094;53.864;27.676;2024-03-08T02:33:27;1.50;;;1.50;;
64678;SDS011;51094;53.864;27.676;2024-03-08T02:35:55;1.60;;;1.60;;
64678;SDS011;51094;53.864;27.676;2024-03-08T02:38:23;1.67;;;1.67;;
64678;SDS011;51094;53.864;27.676;2024-03-08T02:40:53;1.67;;;1.67;;
64678;SDS011;51094;53.864;27.676;2024-03-08T02:43:21;1.80;;;1.80;;
64678;SDS011;51094;53.864;27.676;2024-03-08T02:45:51;1.52;;;1.52;;
64678;SDS011;51094;53.864;27.676;2024-03-08T02:48:21;1.70;;;1.70;;
64678;SDS011;51094;53.864;27.676;2024-03-08T02:50:49;1.50;;;1.50;;
64678;SDS011;51094;53.864;27.676;2024-03-08T02:53:18;1.70;;;1.70;;
64678;SDS011;51094;53.864;27.676;2024-03-08T02:55:45;1.70;;;1.70;;
64678;SDS011;51094;53.864;27.676;2024-03-08T02:58:16;1.45;;;1.45;;
64678;SDS011;51094;53.864;27.676;2024-03-08T03:00:46;1.80;;;1.80;;
64678;SDS011;51094;53.864;27.676;2024-03-08T03:03:16;1.80;;;1.77;;
64678;SDS011;51094;53.864;27.676;2024-03-08T03:05:43;1.92;;;1.92;;
64678;SDS011;51094;53.864;27.676;2024-03-08T03:08:15;1.50;;;1.50;;
64678;SDS011;51094;53.864;27.676;2024-03-08T03:10:44;1.80;;;1.80;;
64678;SDS011;51094;53.864;27.676;2024-03-08T03:13:11;1.52;;;1.52;;
64678;SDS011;51094;53.864;27.676;2024-03-08T03:15:38;1.60;;;1.60;;
64678;SDS011;51094;53.864;27.676;2024-03-08T03:18:08;1.65;;;1.65;;
64678;SDS011;51094;53.864;27.676;2024-03-08T03:20:36;1.80;;;1.80;;
64678;SDS011;51094;53.864;27.676;2024-03-08T03:23:10;1.50;;;1.50;;
64678;SDS011;51094;53.864;27.676;2024-03-08T03:25:41;1.40;;;1.40;;
64678;SDS011;51094;53.864;27.676;2024-03-08T03:28:09;1.58;;;1.58;;
64678;SDS011;51094;53.864;27.676;2024-03-08T03:30:45;1.70;;;1.70;;
64678;SDS011;51094;53.864;27.676;2024-03-08T03:33:13;1.50;;;1.50;;
64678;SDS011;51094;53.864;27.676;2024-03-08T03:35:42;1.60;;;1.60;;
64678;SDS011;51094;53.864;27.676;2024-03-08T03:38:11;1.60;;;1.60;;
64678;SDS011;51094;53.864;27.676;2024-03-08T03:40:38;1.50;;;1.50;;
64678;SDS011;51094;53.864;27.676;2024-03-08T03:43:12;1.60;;;1.60;;
64678;SDS011;51094;53.864;27.676;2024-03-08T03:45:39;1.60;;;1.60;;
64678;SDS011;51094;53.864;27.676;2024-03-08T03:48:09;1.80;;;1.80;;
64678;SDS011;51094;53.864;27.676;2024-03-08T03:50:41;1.77;;;1.77;;
64678;SDS011;51094;53.864;27.676;2024-03-08T03:53:08;1.75;;;1.75;;
64678;SDS011;51094;53.864;27.676;2024-03-08T03:55:38;2.00;;;2.00;;
64678;SDS011;51094;53.864;27.676;2024-03-08T03:58:07;1.95;;;1.95;;
64678;SDS011;51094;53.864;27.676;2024-03-08T04:00:37;1.92;;;1.92;;
64678;SDS011;51094;53.864;27.676;2024-03-08T04:03:04;1.60;;;1.60;;
64678;SDS011;51094;53.864;27.676;2024-03-08T04:05:33;1.90;;;1.90;;
64678;SDS011;51094;53.864;27.676;2024-03-08T04:08:01;1.70;;;1.70;;
64678;SDS011;51094;53.864;27.676;2024-03-08T04:10:31;1.90;;;1.90;;
64678;SDS011;51094;53.864;27.676;2024-03-08T04:12:59;1.90;;;1.90;;
64678;SDS011;51094;53.864;27.676;2024-03-08T04:15:26;1.73;;;1.73;;
64678;SDS011;51094;53.864;27.676;2024-03-08T04:17:53;2.00;;;2.00;;
64678;SDS011;51094;53.864;27.676;2024-03-08T04:20:25;1.80;;;1.80;;
64678;SDS011;51094;53.864;27.676;2024-03-08T04:22:52;1.80;;;1.80;;
64678;SDS011;51094;53.864;27.676;2024-03-08T04:25:19;1.65;;;1.65;;
64678;SDS011;51094;53.864;27.676;2024-03-08T04:27:49;1.70;;;1.70;;
64678;SDS011;51094;53.864;27.676;2024-03-08T04:30:24;2.25;;;2.25;;
64678;SDS011;51094;53.864;27.676;2024-03-08T04:32:51;1.88;;;1.88;;
64678;SDS011;51094;53.864;27.676;2024-03-08T04:35:19;2.10;;;2.00;;
64678;SDS011;51094;53.864;27.676;2024-03-08T04:37:49;2.05;;;2.05;;
64678;SDS011;51094;53.864;27.676;2024-03-08T04:40:16;1.92;;;1.92;;
64678;SDS011;51094;53.864;27.676;2024-03-08T04:42:43;2.13;;;2.13;;
64678;SDS011;51094;53.864;27.676;2024-03-08T04:45:11;2.13;;;2.10;;
64678;SDS011;51094;53.864;27.676;2024-03-08T04:47:39;2.10;;;2.10;;
64678;SDS011;51094;53.864;27.676;2024-03-08T04:50:06;2.20;;;2.20;;
64678;SDS011;51094;53.864;27.676;2024-03-08T04:52:35;2.17;;;2.17;;
64678;SDS011;51094;53.864;27.676;2024-03-08T04:55:02;2.17;;;2.17;;
64678;SDS011;51094;53.864;27.676;2024-03-08T04:57:32;2.20;;;2.20;;
64678;SDS011;51094;53.864;27.676;2024-03-08T04:59:59;2.40;;;2.40;;
64678;SDS011;51094;53.864;27.676;2024-03-08T05:02:26;2.15;;;2.15;;
64678;SDS011;51094;53.864;27.676;2024-03-08T05:04:53;2.00;;;2.00;;
64678;SDS011;51094;53.864;27.676;2024-03-08T05:07:20;2.13;;;2.13;;
64678;SDS011;51094;53.864;27.676;2024-03-08T05:09:47;2.47;;;2.47;;
64678;SDS011;51094;53.864;27.676;2024-03-08T05:12:18;2.45;;;2.45;;
64678;SDS011;51094;53.864;27.676;2024-03-08T05:14:46;2.20;;;2.20;;
64678;SDS011;51094;53.864;27.676;2024-03-08T05:17:16;2.63;;;2.63;;
64678;SDS011;51094;53.864;27.676;2024-03-08T05:19:44;2.60;;;2.60;;
64678;SDS011;51094;53.864;27.676;2024-03-08T05:22:11;2.53;;;2.53;;
64678;SDS011;51094;53.864;27.676;2024-03-08T05:24:38;2.38;;;2.38;;
64678;SDS011;51094;53.864;27.676;2024-03-08T05:27:05;2.72;;;2.65;;
64678;SDS011;51094;53.864;27.676;2024-03-08T05:29:32;2.03;;;2.03;;
64678;SDS011;51094;53.864;27.676;2024-03-08T05:32:00;2.30;;;2.30;;
64678;SDS011;51094;53.864;27.676;2024-03-08T05:34:27;2.28;;;2.28;;
64678;SDS011;51094;53.864;27.676;2024-03-08T05:36:55;2.10;;;2.10;;
64678;SDS011;51094;53.864;27.676;2024-03-08T05:39:24;2.13;;;2.13;;
64678;SDS011;51094;53.864;27.676;2024-03-08T05:41:51;2.20;;;2.20;;
64678;SDS011;51094;53.864;27.676;2024-03-08T05:44:19;2.30;;;2.30;;
64678;SDS011;51094;53.864;27.676;2024-03-08T05:46:46;2.60;;;2.60;;
64678;SDS011;51094;53.864;27.676;2024-03-08T05:49:14;2.28;;;2.28;;
64678;SDS011;51094;53.864;27.676;2024-03-08T05:51:41;2.45;;;2.35;;
64678;SDS011;51094;53.864;27.676;2024-03-08T05:54:10;2.00;;;2.00;;
64678;SDS011;51094;53.864;27.676;2024-03-08T05:56:42;2.42;;;2.40;;
64678;SDS011;51094;53.864;27.676;2024-03-08T05:59:14;2.22;;;2.22;;
64678;SDS011;51094;53.864;27.676;2024-03-08T06:01:41;2.22;;;2.22;;
64678;SDS011;51094;53.864;27.676;2024-03-08T06:04:09;2.22;;;2.22;;
64678;SDS011;51094;53.864;27.676;2024-03-08T06:06:38;2.15;;;2.15;;
64678;SDS011;51094;53.864;27.676;2024-03-08T06:09:07;2.30;;;2.30;;
64678;SDS011;51094;53.864;27.676;2024-03-08T06:11:39;2.22;;;2.22;;
64678;SDS011;51094;53.864;27.676;2024-03-08T06:14:06;2.40;;;2.40;;
64678;SDS011;51094;53.864;27.676;2024-03-08T06:16:33;2.22;;;2.22;;
64678;SDS011;51094;53.864;27.676;2024-03-08T06:19:02;2.30;;;2.30;;
64678;SDS011;51094;53.864;27.676;2024-03-08T06:21:30;2.50;;;2.50;;
64678;SDS011;51094;53.864;27.676;2024-03-08T06:23:58;2.33;;;2.33;;
64678;SDS011;51094;53.864;27.676;2024-03-08T06:26:25;2.45;;;2.45;;
64678;SDS011;51094;53.864;27.676;2024-03-08T06:28:57;2.65;;;2.58;;
64678;SDS011;51094;53.864;27.676;2024-03-08T06:31:24;2.42;;;2.40;;
64678;SDS011;51094;53.864;27.676;2024-03-08T06:33:53;2.22;;;2.22;;
64678;SDS011;51094;53.864;27.676;2024-03-08T06:36:22;2.20;;;2.20;;
64678;SDS011;51094;53.864;27.676;2024-03-08T06:38:51;2.40;;;2.40;;
64678;SDS011;51094;53.864;27.676;2024-03-08T06:41:18;2.17;;;2.17;;
64678;SDS011;51094;53.864;27.676;2024-03-08T06:43:46;2.40;;;2.38;;
64678;SDS011;51094;53.864;27.676;2024-03-08T06:46:15;2.50;;;2.50;;
64678;SDS011;51094;53.864;27.676;2024-03-08T06:48:43;2.40;;;2.40;;
64678;SDS011;51094;53.864;27.676;2024-03-08T06:51:10;2.53;;;2.53;;
64678;SDS011;51094;53.864;27.676;2024-03-08T06:53:38;3.08;;;2.97;;
64678;SDS011;51094;53.864;27.676;2024-03-08T06:56:05;4.15;;;4.00;;
64678;SDS011;51094;53.864;27.676;2024-03-08T06:58:37;5.28;;;5.07;;
64678;SDS011;51094;53.864;27.676;2024-03-08T07:01:04;5.05;;;4.90;;
64678;SDS011;51094;53.864;27.676;2024-03-08T07:03:35;4.50;;;4.40;;
64678;SDS011;51094;53.864;27.676;2024-03-08T07:06:02;4.03;;;3.92;;
64678;SDS011;51094;53.864;27.676;2024-03-08T07:08:30;3.20;;;3.10;;
64678;SDS011;51094;53.864;27.676;2024-03-08T07:10:57;2.88;;;2.83;;
64678;SDS011;51094;53.864;27.676;2024-03-08T07:13:26;2.55;;;2.55;;
64678;SDS011;51094;53.864;27.676;2024-03-08T07:15:55;2.95;;;2.85;;
64678;SDS011;51094;53.864;27.676;2024-03-08T07:18:22;2.63;;;2.63;;
64678;SDS011;51094;53.864;27.676;2024-03-08T07:20:50;2.45;;;2.45;;
64678;SDS011;51094;53.864;27.676;2024-03-08T07:23:17;2.30;;;2.30;;
64678;SDS011;51094;53.864;27.676;2024-03-08T07:26:03;2.40;;;2.40;;
64678;SDS011;51094;53.864;27.676;2024-03-08T07:28:30;2.75;;;2.75;;
64678;SDS011;51094;53.864;27.676;2024-03-08T07:30:58;2.85;;;2.80;;
64678;SDS011;51094;53.864;27.676;2024-03-08T07:33:52;2.47;;;2.47;;
64678;SDS011;51094;53.864;27.676;2024-03-08T07:36:20;2.60;;;2.60;;
64678;SDS011;51094;53.864;27.676;2024-03-08T07:38:50;3.15;;;3.05;;
64678;SDS011;51094;53.864;27.676;2024-03-08T07:41:19;2.65;;;2.65;;
64678;SDS011;51094;53.864;27.676;2024-03-08T07:43:46;2.83;;;2.72;;
64678;SDS011;51094;53.864;27.676;2024-03-08T07:46:15;3.00;;;3.00;;
64678;SDS011;51094;53.864;27.676;2024-03-08T07:48:45;3.10;;;3.00;;
64678;SDS011;51094;53.864;27.676;2024-03-08T07:51:15;2.90;;;2.90;;
64678;SDS011;51094;53.864;27.676;2024-03-08T07:53:44;3.10;;;3.00;;
64678;SDS011;51094;53.864;27.676;2024-03-08T07:56:12;2.88;;;2.88;;
64678;SDS011;51094;53.864;27.676;2024-03-08T07:58:40;3.08;;;2.97;;
64678;SDS011;51094;53.864;27.676;2024-03-08T08:01:07;3.35;;;3.25;;
64678;SDS011;51094;53.864;27.676;2024-03-08T08:03:34;3.10;;;3.10;;
64678;SDS011;51094;53.864;27.676;2024-03-08T08:06:04;3.17;;;3.08;;
64678;SDS011;51094;53.864;27.676;2024-03-08T08:08:31;2.97;;;2.97;;
64678;SDS011;51094;53.864;27.676;2024-03-08T08:10:58;3.10;;;3.00;;
64678;SDS011;51094;53.864;27.676;2024-03-08T08:13:26;3.25;;;3.20;;
64678;SDS011;51094;53.864;27.676;2024-03-08T08:15:54;2.75;;;2.75;;
64678;SDS011;51094;53.864;27.676;2024-03-08T08:18:23;3.30;;;3.20;;
64678;SDS011;51094;53.864;27.676;2024-03-08T08:20:52;3.20;;;3.10;;
64678;SDS011;51094;53.864;27.676;2024-03-08T08:23:22;3.15;;;3.10;;
64678;SDS011;51094;53.864;27.676;2024-03-08T08:25:49;3.05;;;2.95;;
64678;SDS011;51094;53.864;27.676;2024-03-08T08:28:16;2.67;;;2.67;;
64678;SDS011;51094;53.864;27.676;2024-03-08T08:30:47;2.67;;;2.67;;
64678;SDS011;51094;53.864;27.676;2024-03-08T08:33:15;2.22;;;2.22;;
64678;SDS011;51094;53.864;27.676;2024-03-08T08:35:42;2.20;;;2.20;;
64678;SDS011;51094;53.864;27.676;2024-03-08T08:38:09;2.08;;;2.00;;
64678;SDS011;51094;53.864;27.676;2024-03-08T08:40:37;1.90;;;1.90;;
64678;SDS011;51094;53.864;27.676;2024-03-08T08:43:04;2.15;;;2.15;;
64678;SDS011;51094;53.864;27.676;2024-03-08T08:45:31;1.88;;;1.88;;
64678;SDS011;51094;53.864;27.676;2024-03-08T08:47:58;1.90;;;1.90;;
64678;SDS011;51094;53.864;27.676;2024-03-08T08:50:29;2.00;;;2.00;;
64678;SDS011;51094;53.864;27.676;2024-03-08T08:52:56;1.50;;;1.50;;
64678;SDS011;51094;53.864;27.676;2024-03-08T08:55:23;1.55;;;1.55;;
64678;SDS011;51094;53.864;27.676;2024-03-08T08:57:53;1.63;;;1.63;;
64678;SDS011;51094;53.864;27.676;2024-03-08T09:00:23;1.75;;;1.75;;
64678;SDS011;51094;53.864;27.676;2024-03-08T09:02:54;1.63;;;1.63;;
64678;SDS011;51094;53.864;27.676;2024-03-08T09:05:24;1.42;;;1.42;;
64678;SDS011;51094;53.864;27.676;2024-03-08T09:07:51;1.52;;;1.52;;
64678;SDS011;51094;53.864;27.676;2024-03-08T09:10:19;1.88;;;1.88;;
64678;SDS011;51094;53.864;27.676;2024-03-08T09:12:55;1.88;;;1.88;;
64678;SDS011;51094;53.864;27.676;2024-03-08T09:15:22;1.52;;;1.52;;
64678;SDS011;51094;53.864;27.676;2024-03-08T09:17:52;1.42;;;1.42;;
64678;SDS011;51094;53.864;27.676;2024-03-08T09:20:19;1.40;;;1.40;;
64678;SDS011;51094;53.864;27.676;2024-03-08T09:22:47;1.50;;;1.50;;
64678;SDS011;51094;53.864;27.676;2024-03-08T09:25:14;1.77;;;1.77;;
64678;SDS011;51094;53.864;27.676;2024-03-08T09:27:41;1.70;;;1.70;;
64678;SDS011;51094;53.864;27.676;2024-03-08T09:30:08;1.55;;;1.55;;
64678;SDS011;51094;53.864;27.676;2024-03-08T09:32:39;1.40;;;1.40;;
64678;SDS011;51094;53.864;27.676;2024-03-08T09:35:07;1.60;;;1.60;;
64678;SDS011;51094;53.864;27.676;2024-03-08T09:37:35;1.50;;;1.50;;
64678;SDS011;51094;53.864;27.676;2024-03-08T09:40:03;1.50;;;1.50;;
64678;SDS011;51094;53.864;27.676;2024-03-08T09:42:36;1.60;;;1.60;;
64678;SDS011;51094;53.864;27.676;2024-03-08T09:45:08;1.60;;;1.60;;
64678;SDS011;51094;53.864;27.676;2024-03-08T09:47:42;1.50;;;1.50;;
64678;SDS011;51094;53.864;27.676;2024-03-08T09:50:11;1.90;;;1.80;;
64678;SDS011;51094;53.864;27.676;2024-03-08T09:52:41;1.63;;;1.63;;
64678;SDS011;51094;53.864;27.676;2024-03-08T09:55:10;1.65;;;1.65;;
64678;SDS011;51094;53.864;27.676;2024-03-08T10:00:20;1.58;;;1.58;;
64678;SDS011;51094;53.864;27.676;2024-03-08T10:02:51;1.50;;;1.50;;
64678;SDS011;51094;53.864;27.676;2024-03-08T10:05:20;1.80;;;1.80;;
64678;SDS011;51094;53.864;27.676;2024-03-08T10:07:50;1.60;;;1.60;;
64678;SDS011;51094;53.864;27.676;2024-03-08T10:10:17;1.55;;;1.55;;
64678;SDS011;51094;53.864;27.676;2024-03-08T10:12:45;1.40;;;1.40;;
64678;SDS011;51094;53.864;27.676;2024-03-08T10:15:16;1.42;;;1.42;;
64678;SDS011;51094;53.864;27.676;2024-03-08T10:17:43;1.33;;;1.33;;
64678;SDS011;51094;53.864;27.676;2024-03-08T10:20:13;1.55;;;1.55;;
64678;SDS011;51094;53.864;27.676;2024-03-08T10:22:47;1.30;;;1.30;;
64678;SDS011;51094;53.864;27.676;2024-03-08T10:25:32;1.40;;;1.40;;
64678;SDS011;51094;53.864;27.676;2024-03-08T10:28:03;1.30;;;1.30;;
64678;SDS011;51094;53.864;27.676;2024-03-08T10:30:34;1.40;;;1.40;;
64678;SDS011;51094;53.864;27.676;2024-03-08T10:33:03;1.30;;;1.30;;
64678;SDS011;51094;53.864;27.676;2024-03-08T10:35:32;1.38;;;1.38;;
64678;SDS011;51094;53.864;27.676;2024-03-08T10:37:59;1.25;;;1.25;;
64678;SDS011;51094;53.864;27.676;2024-03-08T10:40:37;1.27;;;1.27;;
64678;SDS011;51094;53.864;27.676;2024-03-08T10:43:06;1.60;;;1.60;;
64678;SDS011;51094;53.864;27.676;2024-03-08T10:45:47;1.30;;;1.30;;
64678;SDS011;51094;53.864;27.676;2024-03-08T10:48:28;1.30;;;1.30;;
64678;SDS011;51094;53.864;27.676;2024-03-08T10:53:32;1.40;;;1.40;;
64678;SDS011;51094;53.864;27.676;2024-03-08T10:56:01;1.23;;;1.23;;
64678;SDS011;51094;53.864;27.676;2024-03-08T10:58:33;1.45;;;1.45;;
64678;SDS011;51094;53.864;27.676;2024-03-08T11:01:02;1.40;;;1.40;;
64678;SDS011;51094;53.864;27.676;2024-03-08T11:03:44;1.40;;;1.40;;
64678;SDS011;51094;53.864;27.676;2024-03-08T11:08:50;1.38;;;1.38;;
64678;SDS011;51094;53.864;27.676;2024-03-08T11:11:32;1.50;;;1.50;;
64678;SDS011;51094;53.864;27.676;2024-03-08T11:14:06;1.20;;;1.20;;
64678;SDS011;51094;53.864;27.676;2024-03-08T11:17:13;1.42;;;1.42;;
64678;SDS011;51094;53.864;27.676;2024-03-08T11:19:50;1.33;;;1.33;;
64678;SDS011;51094;53.864;27.676;2024-03-08T11:22:28;1.10;;;1.10;;
64678;SDS011;51094;53.864;27.676;2024-03-08T11:25:01;1.20;;;1.20;;
64678;SDS011;51094;53.864;27.676;2024-03-08T11:27:38;1.60;;;1.50;;
64678;SDS011;51094;53.864;27.676;2024-03-08T11:30:07;1.10;;;1.10;;
64678;SDS011;51094;53.864;27.676;2024-03-08T11:32:44;1.15;;;1.15;;
64678;SDS011;51094;53.864;27.676;2024-03-08T11:35:21;1.30;;;1.30;;
64678;SDS011;51094;53.864;27.676;2024-03-08T11:37:52;1.10;;;1.10;;
64678;SDS011;51094;53.864;27.676;2024-03-08T11:40:19;1.30;;;1.30;;
64678;SDS011;51094;53.864;27.676;2024-03-08T11:42:48;1.15;;;1.15;;
64678;SDS011;51094;53.864;27.676;2024-03-08T11:45:16;1.10;;;1.10;;
64678;SDS011;51094;53.864;27.676;2024-03-08T11:47:44;1.00;;;1.00;;
64678;SDS011;51094;53.864;27.676;2024-03-08T11:50:17;1.27;;;1.17;;
64678;SDS011;51094;53.864;27.676;2024-03-08T11:52:47;1.10;;;1.10;;
64678;SDS011;51094;53.864;27.676;2024-03-08T11:55:16;1.10;;;1.10;;
64678;SDS011;51094;53.864;27.676;2024-03-08T11:57:47;1.20;;;1.20;;
64678;SDS011;51094;53.864;27.676;2024-03-08T12:00:16;1.10;;;1.10;;
64678;SDS011;51094;53.864;27.676;2024-03-08T12:03:05;1.02;;;1.02;;
64678;SDS011;51094;53.864;27.676;2024-03-08T12:05:33;1.00;;;1.00;;
64678;SDS011;51094;53.864;27.676;2024-03-08T12:08:05;1.27;;;1.27;;
64678;SDS011;51094;53.864;27.676;2024-03-08T12:10:34;1.05;;;1.05;;
64678;SDS011;51094;53.864;27.676;2024-03-08T12:13:02;1.15;;;1.15;;
64678;SDS011;51094;53.864;27.676;2024-03-08T12:15:39;1.30;;;1.30;;
64678;SDS011;51094;53.864;27.676;2024-03-08T12:18:06;1.00;;;1.00;;
64678;SDS011;51094;53.864;27.676;2024-03-08T12:20:34;1.03;;;1.03;;
64678;SDS011;51094;53.864;27.676;2024-03-08T12:23:01;1.17;;;1.17;;
64678;SDS011;51094;53.864;27.676;2024-03-08T12:25:31;1.10;;;1.10;;
64678;SDS011;51094;53.864;27.676;2024-03-08T12:28:09;1.05;;;1.05;;
64678;SDS011;51094;53.864;27.676;2024-03-08T12:30:46;1.10;;;1.10;;
64678;SDS011;51094;53.864;27.676;2024-03-08T12:33:15;1.10;;;1.10;;
64678;SDS011;51094;53.864;27.676;2024-03-08T12:35:53;1.00;;;1.00;;
64678;SDS011;51094;53.864;27.676;2024-03-08T12:38:23;0.80;;;0.80;;
64678;SDS011;51094;53.864;27.676;2024-03-08T12:41:00;0.90;;;0.90;;
64678;SDS011;51094;53.864;27.676;2024-03-08T12:43:29;0.80;;;0.80;;
64678;SDS011;51094;53.864;27.676;2024-03-08T12:45:58;1.00;;;1.00;;
64678;SDS011;51094;53.864;27.676;2024-03-08T12:48:29;0.90;;;0.90;;
64678;SDS011;51094;53.864;27.676;2024-03-08T12:51:02;1.20;;;1.20;;
64678;SDS011;51094;53.864;27.676;2024-03-08T12:53:29;1.10;;;1.10;;
64678;SDS011;51094;53.864;27.676;2024-03-08T12:55:58;0.80;;;0.80;;
64678;SDS011;51094;53.864;27.676;2024-03-08T12:58:26;0.90;;;0.90;;
64678;SDS011;51094;53.864;27.676;2024-03-08T13:00:53;0.90;;;0.90;;
64678;SDS011;51094;53.864;27.676;2024-03-08T13:03:23;0.93;;;0.93;;
64678;SDS011;51094;53.864;27.676;2024-03-08T13:05:51;0.93;;;0.93;;
64678;SDS011;51094;53.864;27.676;2024-03-08T13:08:18;1.00;;;1.00;;
64678;SDS011;51094;53.864;27.676;2024-03-08T13:10:45;0.80;;;0.80;;
64678;SDS011;51094;53.864;27.676;2024-03-08T13:13:14;0.90;;;0.90;;
64678;SDS011;51094;53.864;27.676;2024-03-08T13:15:45;0.90;;;0.90;;
64678;SDS011;51094;53.864;27.676;2024-03-08T13:18:12;0.80;;;0.80;;
64678;SDS011;51094;53.864;27.676;2024-03-08T13:20:39;0.90;;;0.90;;
64678;SDS011;51094;53.864;27.676;2024-03-08T13:23:13;0.90;;;0.90;;
64678;SDS011;51094;53.864;27.676;2024-03-08T13:25:41;1.13;;;1.13;;
64678;SDS011;51094;53.864;27.676;2024-03-08T13:28:09;0.93;;;0.93;;
64678;SDS011;51094;53.864;27.676;2024-03-08T13:30:37;1.00;;;1.00;;
64678;SDS011;51094;53.864;27.676;2024-03-08T13:33:07;0.82;;;0.82;;
64678;SDS011;51094;53.864;27.676;2024-03-08T13:35:37;1.02;;;1.02;;
64678;SDS011;51094;53.864;27.676;2024-03-08T13:38:04;1.00;;;1.00;;
64678;SDS011;51094;53.864;27.676;2024-03-08T13:40:32;1.05;;;1.05;;
64678;SDS011;51094;53.864;27.676;2024-03-08T13:43:00;0.75;;;0.75;;
64678;SDS011;51094;53.864;27.676;2024-03-08T13:45:28;1.10;;;1.10;;
64678;SDS011;51094;53.864;27.676;2024-03-08T13:47:55;1.00;;;1.00;;
64678;SDS011;51094;53.864;27.676;2024-03-08T13:50:25;1.00;;;1.00;;
64678;SDS011;51094;53.864;27.676;2024-03-08T13:52:53;1.20;;;1.20;;
64678;SDS011;51094;53.864;27.676;2024-03-08T13:55:22;1.10;;;1.10;;
64678;SDS011;51094;53.864;27.676;2024-03-08T13:57:57;1.15;;;1.15;;
64678;SDS011;51094;53.864;27.676;2024-03-08T14:00:27;1.15;;;1.15;;
64678;SDS011;51094;53.864;27.676;2024-03-08T14:02:59;1.10;;;1.10;;
64678;SDS011;51094;53.864;27.676;2024-03-08T14:05:26;0.90;;;0.90;;
64678;SDS011;51094;53.864;27.676;2024-03-08T14:07:53;1.10;;;1.10;;
64678;SDS011;51094;53.864;27.676;2024-03-08T14:10:22;1.20;;;1.20;;
64678;SDS011;51094;53.864;27.676;2024-03-08T14:12:51;1.20;;;1.20;;
64678;SDS011;51094;53.864;27.676;2024-03-08T14:15:18;1.17;;;1.17;;
64678;SDS011;51094;53.864;27.676;2024-03-08T14:17:52;1.70;;;1.70;;
64678;SDS011;51094;53.864;27.676;2024-03-08T14:20:19;1.40;;;1.40;;
64678;SDS011;51094;53.864;27.676;2024-03-08T14:22:55;1.63;;;1.63;;
64678;SDS011;51094;53.864;27.676;2024-03-08T14:25:23;1.33;;;1.33;;
64678;SDS011;51094;53.864;27.676;2024-03-08T14:27:51;1.25;;;1.25;;
64678;SDS011;51094;53.864;27.676;2024-03-08T14:30:31;1.20;;;1.20;;
64678;SDS011;51094;53.864;27.676;2024-03-08T14:33:02;1.20;;;1.20;;
64678;SDS011;51094;53.864;27.676;2024-03-08T14:35:30;1.20;;;1.20;;
64678;SDS011;51094;53.864;27.676;2024-03-08T14:37:57;1.20;;;1.20;;
64678;SDS011;51094;53.864;27.676;2024-03-08T14:40:25;1.10;;;1.10;;
64678;SDS011;51094;53.864;27.676;2024-03-08T14:42:56;0.90;;;0.90;;
64678;SDS011;51094;53.864;27.676;2024-03-08T14:45:23;1.15;;;1.15;;
64678;SDS011;51094;53.864;27.676;2024-03-08T14:47:51;1.30;;;1.30;;
64678;SDS011;51094;53.864;27.676;2024-03-08T14:50:19;1.60;;;1.60;;
64678;SDS011;51094;53.864;27.676;2024-03-08T14:52:49;1.77;;;1.77;;